sensor_id;sensor_type;location;lat;lon;timestamp;P1;durP1;ratioP1;P2;durP2;ratioP2
62941;SDS011;49042;47.318;19.874;2022-11-15T00:00:04;43.92;;;14.60;;
62941;SDS011;49042;47.318;19.874;2022-11-15T00:03:07;56.15;;;14.40;;
62941;SDS011;49042;47.318;19.874;2022-11-15T00:06:08;49.40;;;13.45;;
62941;SDS011;49042;47.318;19.874;2022-11-15T00:09:10;45.80;;;12.45;;
62941;SDS011;49042;47.318;19.874;2022-11-15T00:12:12;79.47;;;13.35;;
62941;SDS011;49042;47.318;19.874;2022-11-15T00:15:14;52.05;;;11.48;;
62941;SDS011;49042;47.318;19.874;2022-11-15T00:18:15;40.03;;;12.20;;
62941;SDS011;49042;47.318;19.874;2022-11-15T00:21:18;37.40;;;11.38;;
62941;SDS011;49042;47.318;19.874;2022-11-15T00:24:20;51.53;;;12.15;;
62941;SDS011;49042;47.318;19.874;2022-11-15T00:27:21;42.22;;;12.63;;
62941;SDS011;49042;47.318;19.874;2022-11-15T00:30:23;71.45;;;13.60;;
62941;SDS011;49042;47.318;19.874;2022-11-15T00:33:25;78.90;;;14.00;;
62941;SDS011;49042;47.318;19.874;2022-11-15T00:36:27;62.40;;;12.95;;
62941;SDS011;49042;47.318;19.874;2022-11-15T00:39:29;42.35;;;12.60;;
62941;SDS011;49042;47.318;19.874;2022-11-15T00:42:30;44.05;;;12.82;;
62941;SDS011;49042;47.318;19.874;2022-11-15T00:45:32;50.30;;;15.10;;
62941;SDS011;49042;47.318;19.874;2022-11-15T00:48:34;56.75;;;14.10;;
62941;SDS011;49042;47.318;19.874;2022-11-15T00:51:36;39.90;;;12.93;;
62941;SDS011;49042;47.318;19.874;2022-11-15T00:54:37;38.53;;;12.73;;
62941;SDS011;49042;47.318;19.874;2022-11-15T00:57:39;63.42;;;12.35;;
62941;SDS011;49042;47.318;19.874;2022-11-15T01:00:41;25.12;;;11.57;;
62941;SDS011;49042;47.318;19.874;2022-11-15T01:03:43;50.50;;;12.43;;
62941;SDS011;49042;47.318;19.874;2022-11-15T01:06:45;62.17;;;14.43;;
62941;SDS011;49042;47.318;19.874;2022-11-15T01:09:46;66.60;;;12.68;;
62941;SDS011;49042;47.318;19.874;2022-11-15T01:12:48;47.17;;;12.20;;
62941;SDS011;49042;47.318;19.874;2022-11-15T01:15:50;32.50;;;11.27;;
62941;SDS011;49042;47.318;19.874;2022-11-15T01:18:52;76.03;;;10.80;;
62941;SDS011;49042;47.318;19.874;2022-11-15T01:21:53;39.13;;;12.07;;
62941;SDS011;49042;47.318;19.874;2022-11-15T01:24:55;25.65;;;10.52;;
62941;SDS011;49042;47.318;19.874;2022-11-15T01:27:57;38.58;;;10.80;;
62941;SDS011;49042;47.318;19.874;2022-11-15T01:30:59;16.95;;;9.77;;
62941;SDS011;49042;47.318;19.874;2022-11-15T01:34:05;52.35;;;11.73;;
62941;SDS011;49042;47.318;19.874;2022-11-15T01:37:07;31.37;;;11.82;;
62941;SDS011;49042;47.318;19.874;2022-11-15T01:40:08;58.42;;;12.80;;
62941;SDS011;49042;47.318;19.874;2022-11-15T01:43:24;31.87;;;12.82;;
62941;SDS011;49042;47.318;19.874;2022-11-15T01:46:33;52.35;;;12.65;;
62941;SDS011;49042;47.318;19.874;2022-11-15T01:49:37;42.55;;;12.25;;
62941;SDS011;49042;47.318;19.874;2022-11-15T01:52:42;38.60;;;12.85;;
62941;SDS011;49042;47.318;19.874;2022-11-15T01:55:44;28.70;;;13.43;;
62941;SDS011;49042;47.318;19.874;2022-11-15T01:58:45;44.90;;;11.60;;
62941;SDS011;49042;47.318;19.874;2022-11-15T02:01:47;29.73;;;11.73;;
62941;SDS011;49042;47.318;19.874;2022-11-15T02:04:49;33.40;;;12.40;;
62941;SDS011;49042;47.318;19.874;2022-11-15T02:07:51;20.80;;;11.35;;
62941;SDS011;49042;47.318;19.874;2022-11-15T02:10:53;21.87;;;11.18;;
62941;SDS011;49042;47.318;19.874;2022-11-15T02:13:55;35.67;;;12.32;;
62941;SDS011;49042;47.318;19.874;2022-11-15T02:17:02;38.55;;;11.27;;
62941;SDS011;49042;47.318;19.874;2022-11-15T02:30:29;18.95;;;12.20;;
62941;SDS011;49042;47.318;19.874;2022-11-15T02:37:34;19.55;;;12.02;;
62941;SDS011;49042;47.318;19.874;2022-11-15T02:41:04;22.23;;;11.75;;
62941;SDS011;49042;47.318;19.874;2022-11-15T02:44:15;18.05;;;11.82;;
62941;SDS011;49042;47.318;19.874;2022-11-15T02:47:21;31.12;;;12.63;;
62941;SDS011;49042;47.318;19.874;2022-11-15T02:50:26;19.17;;;12.15;;
62941;SDS011;49042;47.318;19.874;2022-11-15T02:53:30;19.20;;;12.82;;
62941;SDS011;49042;47.318;19.874;2022-11-15T02:56:32;26.67;;;12.93;;
62941;SDS011;49042;47.318;19.874;2022-11-15T03:02:48;20.77;;;12.75;;
62941;SDS011;49042;47.318;19.874;2022-11-15T03:09:34;24.25;;;12.40;;
62941;SDS011;49042;47.318;19.874;2022-11-15T03:12:46;22.33;;;14.05;;
62941;SDS011;49042;47.318;19.874;2022-11-15T03:16:03;18.90;;;12.85;;
62941;SDS011;49042;47.318;19.874;2022-11-15T03:19:19;38.80;;;13.35;;
62941;SDS011;49042;47.318;19.874;2022-11-15T03:22:31;22.45;;;12.65;;
62941;SDS011;49042;47.318;19.874;2022-11-15T03:25:38;26.07;;;13.07;;
62941;SDS011;49042;47.318;19.874;2022-11-15T03:28:47;19.87;;;13.50;;
62941;SDS011;49042;47.318;19.874;2022-11-15T03:31:55;22.42;;;14.05;;
62941;SDS011;49042;47.318;19.874;2022-11-15T03:35:08;25.60;;;14.10;;
62941;SDS011;49042;47.318;19.874;2022-11-15T03:38:17;29.05;;;13.27;;
62941;SDS011;49042;47.318;19.874;2022-11-15T03:41:27;26.00;;;14.43;;
62941;SDS011;49042;47.318;19.874;2022-11-15T03:48:05;20.83;;;13.18;;
62941;SDS011;49042;47.318;19.874;2022-11-15T03:51:14;22.35;;;13.52;;
62941;SDS011;49042;47.318;19.874;2022-11-15T03:54:16;21.17;;;13.82;;
62941;SDS011;49042;47.318;19.874;2022-11-15T03:57:18;26.42;;;14.50;;
62941;SDS011;49042;47.318;19.874;2022-11-15T04:00:20;22.83;;;14.00;;
62941;SDS011;49042;47.318;19.874;2022-11-15T04:03:22;24.30;;;14.48;;
62941;SDS011;49042;47.318;19.874;2022-11-15T04:06:24;23.55;;;14.77;;
62941;SDS011;49042;47.318;19.874;2022-11-15T04:09:25;21.35;;;13.00;;
62941;SDS011;49042;47.318;19.874;2022-11-15T04:12:27;18.95;;;12.55;;
62941;SDS011;49042;47.318;19.874;2022-11-15T04:15:32;22.30;;;13.10;;
62941;SDS011;49042;47.318;19.874;2022-11-15T04:18:34;18.67;;;12.25;;
62941;SDS011;49042;47.318;19.874;2022-11-15T04:21:36;20.20;;;12.32;;
62941;SDS011;49042;47.318;19.874;2022-11-15T04:24:56;17.98;;;11.80;;
62941;SDS011;49042;47.318;19.874;2022-11-15T04:27:57;18.65;;;11.38;;
62941;SDS011;49042;47.318;19.874;2022-11-15T04:30:59;18.17;;;12.40;;
62941;SDS011;49042;47.318;19.874;2022-11-15T04:34:01;23.58;;;12.37;;
62941;SDS011;49042;47.318;19.874;2022-11-15T04:37:02;20.55;;;13.32;;
62941;SDS011;49042;47.318;19.874;2022-11-15T04:40:13;19.02;;;11.77;;
62941;SDS011;49042;47.318;19.874;2022-11-15T04:43:15;18.98;;;12.15;;
62941;SDS011;49042;47.318;19.874;2022-11-15T04:46:16;24.17;;;12.57;;
62941;SDS011;49042;47.318;19.874;2022-11-15T04:49:18;19.80;;;11.95;;
62941;SDS011;49042;47.318;19.874;2022-11-15T04:52:20;18.77;;;11.88;;
62941;SDS011;49042;47.318;19.874;2022-11-15T04:55:21;18.42;;;12.30;;
62941;SDS011;49042;47.318;19.874;2022-11-15T04:58:23;17.60;;;11.98;;
62941;SDS011;49042;47.318;19.874;2022-11-15T05:01:25;17.85;;;11.57;;
62941;SDS011;49042;47.318;19.874;2022-11-15T05:04:27;20.95;;;11.98;;
62941;SDS011;49042;47.318;19.874;2022-11-15T05:07:28;20.33;;;12.30;;
62941;SDS011;49042;47.318;19.874;2022-11-15T05:10:54;19.23;;;12.68;;
62941;SDS011;49042;47.318;19.874;2022-11-15T05:13:56;25.33;;;12.75;;
62941;SDS011;49042;47.318;19.874;2022-11-15T05:16:57;20.02;;;12.45;;
62941;SDS011;49042;47.318;19.874;2022-11-15T05:19:59;25.90;;;13.60;;
62941;SDS011;49042;47.318;19.874;2022-11-15T05:23:01;17.58;;;12.32;;
62941;SDS011;49042;47.318;19.874;2022-11-15T05:26:03;19.58;;;13.38;;
62941;SDS011;49042;47.318;19.874;2022-11-15T05:29:09;20.17;;;13.05;;
62941;SDS011;49042;47.318;19.874;2022-11-15T05:32:12;19.92;;;13.05;;
62941;SDS011;49042;47.318;19.874;2022-11-15T05:35:19;21.40;;;13.50;;
62941;SDS011;49042;47.318;19.874;2022-11-15T05:38:26;30.45;;;14.50;;
62941;SDS011;49042;47.318;19.874;2022-11-15T05:41:31;25.08;;;15.55;;
62941;SDS011;49042;47.318;19.874;2022-11-15T05:44:37;24.87;;;14.13;;
62941;SDS011;49042;47.318;19.874;2022-11-15T05:47:42;28.35;;;15.10;;
62941;SDS011;49042;47.318;19.874;2022-11-15T05:50:45;34.10;;;13.62;;
62941;SDS011;49042;47.318;19.874;2022-11-15T05:53:49;23.25;;;14.38;;
62941;SDS011;49042;47.318;19.874;2022-11-15T05:56:52;34.83;;;15.85;;
62941;SDS011;49042;47.318;19.874;2022-11-15T05:59:56;25.95;;;15.30;;
62941;SDS011;49042;47.318;19.874;2022-11-15T06:03:15;44.83;;;16.35;;
62941;SDS011;49042;47.318;19.874;2022-11-15T06:06:17;30.37;;;14.93;;
62941;SDS011;49042;47.318;19.874;2022-11-15T06:09:18;28.35;;;15.65;;
62941;SDS011;49042;47.318;19.874;2022-11-15T06:12:20;30.33;;;16.12;;
62941;SDS011;49042;47.318;19.874;2022-11-15T06:15:22;32.85;;;17.48;;
62941;SDS011;49042;47.318;19.874;2022-11-15T06:18:35;28.27;;;15.57;;
62941;SDS011;49042;47.318;19.874;2022-11-15T06:21:37;25.27;;;14.15;;
62941;SDS011;49042;47.318;19.874;2022-11-15T06:24:51;31.05;;;16.02;;
62941;SDS011;49042;47.318;19.874;2022-11-15T06:28:05;24.65;;;15.23;;
62941;SDS011;49042;47.318;19.874;2022-11-15T06:31:19;29.48;;;16.65;;
62941;SDS011;49042;47.318;19.874;2022-11-15T06:34:21;27.35;;;15.63;;
62941;SDS011;49042;47.318;19.874;2022-11-15T06:37:22;27.10;;;15.77;;
62941;SDS011;49042;47.318;19.874;2022-11-15T06:40:36;27.73;;;15.48;;
62941;SDS011;49042;47.318;19.874;2022-11-15T06:43:51;34.90;;;18.55;;
62941;SDS011;49042;47.318;19.874;2022-11-15T06:46:53;25.33;;;16.15;;
62941;SDS011;49042;47.318;19.874;2022-11-15T06:49:55;26.70;;;15.48;;
62941;SDS011;49042;47.318;19.874;2022-11-15T06:53:08;26.02;;;15.65;;
62941;SDS011;49042;47.318;19.874;2022-11-15T06:56:22;23.70;;;14.68;;
62941;SDS011;49042;47.318;19.874;2022-11-15T06:59:36;22.67;;;15.10;;
62941;SDS011;49042;47.318;19.874;2022-11-15T07:02:50;25.10;;;15.70;;
62941;SDS011;49042;47.318;19.874;2022-11-15T07:06:04;29.77;;;16.77;;
62941;SDS011;49042;47.318;19.874;2022-11-15T07:09:18;28.90;;;17.87;;
62941;SDS011;49042;47.318;19.874;2022-11-15T07:12:32;21.23;;;13.82;;
62941;SDS011;49042;47.318;19.874;2022-11-15T07:15:45;18.62;;;13.48;;
62941;SDS011;49042;47.318;19.874;2022-11-15T07:18:47;37.80;;;20.58;;
62941;SDS011;49042;47.318;19.874;2022-11-15T07:22:00;37.63;;;17.98;;
62941;SDS011;49042;47.318;19.874;2022-11-15T07:25:14;20.73;;;13.35;;
62941;SDS011;49042;47.318;19.874;2022-11-15T07:28:16;20.00;;;13.82;;
62941;SDS011;49042;47.318;19.874;2022-11-15T07:31:29;24.52;;;15.32;;
62941;SDS011;49042;47.318;19.874;2022-11-15T07:34:42;30.20;;;16.08;;
62941;SDS011;49042;47.318;19.874;2022-11-15T07:37:44;36.22;;;21.67;;
62941;SDS011;49042;47.318;19.874;2022-11-15T07:40:46;21.17;;;13.80;;
62941;SDS011;49042;47.318;19.874;2022-11-15T07:43:50;20.33;;;13.60;;
62941;SDS011;49042;47.318;19.874;2022-11-15T07:46:53;21.90;;;14.82;;
62941;SDS011;49042;47.318;19.874;2022-11-15T07:49:55;20.92;;;14.95;;
62941;SDS011;49042;47.318;19.874;2022-11-15T07:53:09;22.75;;;15.32;;
62941;SDS011;49042;47.318;19.874;2022-11-15T07:56:11;26.05;;;15.02;;
62941;SDS011;49042;47.318;19.874;2022-11-15T07:59:13;24.25;;;16.37;;
62941;SDS011;49042;47.318;19.874;2022-11-15T08:02:15;23.42;;;15.23;;
62941;SDS011;49042;47.318;19.874;2022-11-15T08:05:19;23.98;;;13.95;;
62941;SDS011;49042;47.318;19.874;2022-11-15T08:08:20;28.12;;;16.42;;
62941;SDS011;49042;47.318;19.874;2022-11-15T08:11:22;23.48;;;14.43;;
62941;SDS011;49042;47.318;19.874;2022-11-15T08:14:24;28.83;;;16.12;;
62941;SDS011;49042;47.318;19.874;2022-11-15T08:17:25;29.58;;;15.93;;
62941;SDS011;49042;47.318;19.874;2022-11-15T08:20:28;25.05;;;15.73;;
62941;SDS011;49042;47.318;19.874;2022-11-15T08:23:33;26.40;;;17.10;;
62941;SDS011;49042;47.318;19.874;2022-11-15T08:26:35;29.55;;;17.90;;
62941;SDS011;49042;47.318;19.874;2022-11-15T08:29:37;28.30;;;17.60;;
62941;SDS011;49042;47.318;19.874;2022-11-15T08:32:38;34.47;;;18.98;;
62941;SDS011;49042;47.318;19.874;2022-11-15T08:35:40;28.50;;;18.15;;
62941;SDS011;49042;47.318;19.874;2022-11-15T08:38:43;34.40;;;18.10;;
62941;SDS011;49042;47.318;19.874;2022-11-15T08:41:45;34.30;;;18.70;;
62941;SDS011;49042;47.318;19.874;2022-11-15T08:44:46;29.60;;;17.55;;
62941;SDS011;49042;47.318;19.874;2022-11-15T08:47:49;35.20;;;18.08;;
62941;SDS011;49042;47.318;19.874;2022-11-15T08:50:55;31.62;;;18.42;;
62941;SDS011;49042;47.318;19.874;2022-11-15T08:53:57;28.70;;;18.08;;
62941;SDS011;49042;47.318;19.874;2022-11-15T08:56:59;31.95;;;18.67;;
62941;SDS011;49042;47.318;19.874;2022-11-15T09:00:00;30.85;;;19.20;;
62941;SDS011;49042;47.318;19.874;2022-11-15T09:03:05;34.13;;;17.83;;
62941;SDS011;49042;47.318;19.874;2022-11-15T09:06:08;33.20;;;18.25;;
62941;SDS011;49042;47.318;19.874;2022-11-15T09:09:10;36.88;;;18.48;;
62941;SDS011;49042;47.318;19.874;2022-11-15T09:12:11;31.48;;;18.37;;
62941;SDS011;49042;47.318;19.874;2022-11-15T09:15:14;33.00;;;19.52;;
62941;SDS011;49042;47.318;19.874;2022-11-15T09:18:17;29.55;;;18.50;;
62941;SDS011;49042;47.318;19.874;2022-11-15T09:21:18;32.05;;;19.45;;
62941;SDS011;49042;47.318;19.874;2022-11-15T09:24:20;31.67;;;19.58;;
62941;SDS011;49042;47.318;19.874;2022-11-15T09:27:22;30.05;;;18.73;;
62941;SDS011;49042;47.318;19.874;2022-11-15T09:30:24;31.87;;;17.98;;
62941;SDS011;49042;47.318;19.874;2022-11-15T09:33:26;31.85;;;19.45;;
62941;SDS011;49042;47.318;19.874;2022-11-15T09:36:29;29.33;;;18.70;;
62941;SDS011;49042;47.318;19.874;2022-11-15T09:39:31;29.37;;;19.23;;
62941;SDS011;49042;47.318;19.874;2022-11-15T09:46:17;26.50;;;17.35;;
62941;SDS011;49042;47.318;19.874;2022-11-15T09:49:26;27.77;;;17.60;;
62941;SDS011;49042;47.318;19.874;2022-11-15T09:52:30;25.30;;;16.00;;
62941;SDS011;49042;47.318;19.874;2022-11-15T09:55:34;24.27;;;16.27;;
62941;SDS011;49042;47.318;19.874;2022-11-15T09:58:56;23.73;;;16.05;;
62941;SDS011;49042;47.318;19.874;2022-11-15T10:05:23;24.27;;;15.80;;
62941;SDS011;49042;47.318;19.874;2022-11-15T10:11:56;27.87;;;16.42;;
62941;SDS011;49042;47.318;19.874;2022-11-15T10:15:02;25.88;;;17.52;;
62941;SDS011;49042;47.318;19.874;2022-11-15T10:21:37;23.80;;;15.70;;
62941;SDS011;49042;47.318;19.874;2022-11-15T10:24:52;28.60;;;15.85;;
62941;SDS011;49042;47.318;19.874;2022-11-15T10:31:30;27.25;;;16.30;;
62941;SDS011;49042;47.318;19.874;2022-11-15T10:34:34;26.37;;;17.60;;
62941;SDS011;49042;47.318;19.874;2022-11-15T10:37:37;27.65;;;16.50;;
62941;SDS011;49042;47.318;19.874;2022-11-15T10:40:39;24.67;;;17.02;;
62941;SDS011;49042;47.318;19.874;2022-11-15T10:43:42;24.63;;;16.25;;
62941;SDS011;49042;47.318;19.874;2022-11-15T10:46:45;26.52;;;16.75;;
62941;SDS011;49042;47.318;19.874;2022-11-15T10:49:57;27.02;;;16.65;;
62941;SDS011;49042;47.318;19.874;2022-11-15T10:53:04;25.55;;;17.10;;
62941;SDS011;49042;47.318;19.874;2022-11-15T10:56:21;27.75;;;17.48;;
62941;SDS011;49042;47.318;19.874;2022-11-15T10:59:26;24.70;;;15.90;;
62941;SDS011;49042;47.318;19.874;2022-11-15T11:02:38;29.30;;;17.40;;
62941;SDS011;49042;47.318;19.874;2022-11-15T11:05:43;33.40;;;17.05;;
62941;SDS011;49042;47.318;19.874;2022-11-15T11:08:55;24.95;;;16.62;;
62941;SDS011;49042;47.318;19.874;2022-11-15T11:11:59;36.20;;;17.92;;
62941;SDS011;49042;47.318;19.874;2022-11-15T11:15:05;25.90;;;16.85;;
62941;SDS011;49042;47.318;19.874;2022-11-15T11:18:19;30.27;;;17.87;;
62941;SDS011;49042;47.318;19.874;2022-11-15T11:21:37;29.85;;;17.92;;
62941;SDS011;49042;47.318;19.874;2022-11-15T11:34:40;33.80;;;20.50;;
62941;SDS011;49042;47.318;19.874;2022-11-15T11:41:38;27.80;;;17.80;;
62941;SDS011;49042;47.318;19.874;2022-11-15T11:44:57;25.17;;;16.87;;
62941;SDS011;49042;47.318;19.874;2022-11-15T11:48:18;27.37;;;18.05;;
62941;SDS011;49042;47.318;19.874;2022-11-15T11:51:28;31.33;;;18.25;;
62941;SDS011;49042;47.318;19.874;2022-11-15T12:04:30;30.80;;;20.87;;
62941;SDS011;49042;47.318;19.874;2022-11-15T12:07:37;37.65;;;22.37;;
62941;SDS011;49042;47.318;19.874;2022-11-15T12:10:41;40.33;;;23.38;;
62941;SDS011;49042;47.318;19.874;2022-11-15T12:13:50;37.72;;;22.70;;
62941;SDS011;49042;47.318;19.874;2022-11-15T12:16:58;42.65;;;24.27;;
62941;SDS011;49042;47.318;19.874;2022-11-15T12:20:04;52.40;;;30.15;;
62941;SDS011;49042;47.318;19.874;2022-11-15T12:23:17;62.33;;;33.20;;
62941;SDS011;49042;47.318;19.874;2022-11-15T12:26:29;74.82;;;38.50;;
62941;SDS011;49042;47.318;19.874;2022-11-15T12:29:37;44.88;;;27.58;;
62941;SDS011;49042;47.318;19.874;2022-11-15T12:33:45;49.50;;;25.08;;
62941;SDS011;49042;47.318;19.874;2022-11-15T12:36:40;32.50;;;20.80;;
62941;SDS011;49042;47.318;19.874;2022-11-15T12:40:03;35.30;;;23.02;;
62941;SDS011;49042;47.318;19.874;2022-11-15T12:46:17;39.70;;;22.77;;
62941;SDS011;49042;47.318;19.874;2022-11-15T12:52:24;39.88;;;22.15;;
62941;SDS011;49042;47.318;19.874;2022-11-15T12:55:30;38.72;;;23.70;;
62941;SDS011;49042;47.318;19.874;2022-11-15T12:58:44;41.08;;;26.73;;
62941;SDS011;49042;47.318;19.874;2022-11-15T13:04:52;50.05;;;31.85;;
62941;SDS011;49042;47.318;19.874;2022-11-15T13:07:58;47.42;;;30.37;;
62941;SDS011;49042;47.318;19.874;2022-11-15T13:11:11;42.75;;;27.27;;
62941;SDS011;49042;47.318;19.874;2022-11-15T13:14:44;39.05;;;24.92;;
62941;SDS011;49042;47.318;19.874;2022-11-15T13:17:54;46.67;;;30.00;;
62941;SDS011;49042;47.318;19.874;2022-11-15T13:20:57;61.50;;;34.08;;
62941;SDS011;49042;47.318;19.874;2022-11-15T13:24:03;50.30;;;29.40;;
62941;SDS011;49042;47.318;19.874;2022-11-15T13:27:15;49.30;;;27.65;;
62941;SDS011;49042;47.318;19.874;2022-11-15T13:30:21;42.17;;;27.58;;
62941;SDS011;49042;47.318;19.874;2022-11-15T13:36:36;38.67;;;25.02;;
62941;SDS011;49042;47.318;19.874;2022-11-15T13:39:38;41.00;;;26.87;;
62941;SDS011;49042;47.318;19.874;2022-11-15T13:42:39;45.30;;;27.48;;
62941;SDS011;49042;47.318;19.874;2022-11-15T13:46:03;53.28;;;31.90;;
62941;SDS011;49042;47.318;19.874;2022-11-15T13:49:09;43.30;;;28.25;;
62941;SDS011;49042;47.318;19.874;2022-11-15T13:52:14;42.50;;;25.48;;
62941;SDS011;49042;47.318;19.874;2022-11-15T13:55:18;43.97;;;26.85;;
62941;SDS011;49042;47.318;19.874;2022-11-15T13:58:24;42.90;;;26.42;;
62941;SDS011;49042;47.318;19.874;2022-11-15T14:01:26;42.95;;;24.92;;
62941;SDS011;49042;47.318;19.874;2022-11-15T14:04:32;39.20;;;25.77;;
62941;SDS011;49042;47.318;19.874;2022-11-15T14:07:35;46.15;;;27.60;;
62941;SDS011;49042;47.318;19.874;2022-11-15T14:10:44;38.13;;;23.73;;
62941;SDS011;49042;47.318;19.874;2022-11-15T14:17:20;36.45;;;23.85;;
62941;SDS011;49042;47.318;19.874;2022-11-15T14:20:35;38.20;;;24.20;;
62941;SDS011;49042;47.318;19.874;2022-11-15T14:23:39;37.47;;;24.85;;
62941;SDS011;49042;47.318;19.874;2022-11-15T14:26:41;38.00;;;24.37;;
62941;SDS011;49042;47.318;19.874;2022-11-15T14:29:43;43.08;;;25.55;;
62941;SDS011;49042;47.318;19.874;2022-11-15T14:32:46;36.83;;;23.45;;
62941;SDS011;49042;47.318;19.874;2022-11-15T14:35:49;136.73;;;54.83;;
62941;SDS011;49042;47.318;19.874;2022-11-15T14:38:54;65.62;;;34.47;;
62941;SDS011;49042;47.318;19.874;2022-11-15T14:41:56;40.72;;;23.15;;
62941;SDS011;49042;47.318;19.874;2022-11-15T14:44:57;49.72;;;28.48;;
62941;SDS011;49042;47.318;19.874;2022-11-15T14:47:59;42.97;;;26.58;;
62941;SDS011;49042;47.318;19.874;2022-11-15T14:51:01;38.63;;;23.48;;
62941;SDS011;49042;47.318;19.874;2022-11-15T14:54:02;38.55;;;23.40;;
62941;SDS011;49042;47.318;19.874;2022-11-15T14:57:04;58.22;;;31.92;;
62941;SDS011;49042;47.318;19.874;2022-11-15T15:00:06;49.58;;;29.67;;
62941;SDS011;49042;47.318;19.874;2022-11-15T15:03:09;50.92;;;32.03;;
62941;SDS011;49042;47.318;19.874;2022-11-15T15:06:11;54.60;;;29.40;;
62941;SDS011;49042;47.318;19.874;2022-11-15T15:09:18;51.55;;;28.55;;
62941;SDS011;49042;47.318;19.874;2022-11-15T15:12:21;47.08;;;29.95;;
62941;SDS011;49042;47.318;19.874;2022-11-15T15:15:25;54.85;;;34.03;;
62941;SDS011;49042;47.318;19.874;2022-11-15T15:18:31;61.75;;;35.20;;
62941;SDS011;49042;47.318;19.874;2022-11-15T15:21:33;65.20;;;41.30;;
62941;SDS011;49042;47.318;19.874;2022-11-15T15:24:37;48.67;;;29.45;;
62941;SDS011;49042;47.318;19.874;2022-11-15T15:27:39;37.85;;;23.00;;
62941;SDS011;49042;47.318;19.874;2022-11-15T15:30:41;45.60;;;26.30;;
62941;SDS011;49042;47.318;19.874;2022-11-15T15:33:42;48.22;;;28.75;;
62941;SDS011;49042;47.318;19.874;2022-11-15T15:36:45;72.43;;;37.95;;
62941;SDS011;49042;47.318;19.874;2022-11-15T15:39:46;49.08;;;30.80;;
62941;SDS011;49042;47.318;19.874;2022-11-15T15:42:48;50.80;;;28.95;;
62941;SDS011;49042;47.318;19.874;2022-11-15T15:45:50;53.22;;;27.98;;
62941;SDS011;49042;47.318;19.874;2022-11-15T15:48:52;46.58;;;27.37;;
62941;SDS011;49042;47.318;19.874;2022-11-15T15:51:53;52.90;;;29.00;;
62941;SDS011;49042;47.318;19.874;2022-11-15T15:54:55;67.78;;;36.88;;
62941;SDS011;49042;47.318;19.874;2022-11-15T15:57:57;50.33;;;28.98;;
62941;SDS011;49042;47.318;19.874;2022-11-15T16:00:58;54.35;;;32.10;;
62941;SDS011;49042;47.318;19.874;2022-11-15T16:04:00;63.63;;;36.42;;
62941;SDS011;49042;47.318;19.874;2022-11-15T16:07:02;62.03;;;34.35;;
62941;SDS011;49042;47.318;19.874;2022-11-15T16:13:26;60.95;;;33.58;;
62941;SDS011;49042;47.318;19.874;2022-11-15T16:16:28;70.95;;;38.05;;
62941;SDS011;49042;47.318;19.874;2022-11-15T16:19:30;78.07;;;44.45;;
62941;SDS011;49042;47.318;19.874;2022-11-15T16:22:31;73.85;;;40.83;;
62941;SDS011;49042;47.318;19.874;2022-11-15T16:25:35;72.82;;;39.78;;
62941;SDS011;49042;47.318;19.874;2022-11-15T16:28:41;93.97;;;48.25;;
62941;SDS011;49042;47.318;19.874;2022-11-15T16:31:42;95.75;;;52.10;;
62941;SDS011;49042;47.318;19.874;2022-11-15T16:34:44;72.95;;;40.03;;
62941;SDS011;49042;47.318;19.874;2022-11-15T16:37:49;73.47;;;39.45;;
62941;SDS011;49042;47.318;19.874;2022-11-15T16:40:51;69.35;;;41.45;;
62941;SDS011;49042;47.318;19.874;2022-11-15T16:43:53;135.85;;;70.15;;
62941;SDS011;49042;47.318;19.874;2022-11-15T16:46:54;148.13;;;77.85;;
62941;SDS011;49042;47.318;19.874;2022-11-15T16:49:56;76.62;;;45.53;;
62941;SDS011;49042;47.318;19.874;2022-11-15T16:52:58;68.43;;;42.13;;
62941;SDS011;49042;47.318;19.874;2022-11-15T16:56:00;81.47;;;45.80;;
62941;SDS011;49042;47.318;19.874;2022-11-15T16:59:02;71.65;;;39.63;;
62941;SDS011;49042;47.318;19.874;2022-11-15T17:02:07;69.93;;;38.13;;
62941;SDS011;49042;47.318;19.874;2022-11-15T17:05:12;57.08;;;32.60;;
62941;SDS011;49042;47.318;19.874;2022-11-15T17:08:20;59.75;;;30.45;;
62941;SDS011;49042;47.318;19.874;2022-11-15T17:11:22;62.17;;;34.08;;
62941;SDS011;49042;47.318;19.874;2022-11-15T17:14:24;69.05;;;37.53;;
62941;SDS011;49042;47.318;19.874;2022-11-15T17:17:26;62.65;;;35.10;;
62941;SDS011;49042;47.318;19.874;2022-11-15T17:20:31;74.25;;;39.22;;
62941;SDS011;49042;47.318;19.874;2022-11-15T17:23:33;80.35;;;42.08;;
62941;SDS011;49042;47.318;19.874;2022-11-15T17:26:35;83.80;;;43.60;;
62941;SDS011;49042;47.318;19.874;2022-11-15T17:29:41;65.10;;;34.17;;
62941;SDS011;49042;47.318;19.874;2022-11-15T17:32:43;63.33;;;34.55;;
62941;SDS011;49042;47.318;19.874;2022-11-15T17:35:45;56.83;;;31.90;;
62941;SDS011;49042;47.318;19.874;2022-11-15T17:38:47;62.40;;;34.53;;
62941;SDS011;49042;47.318;19.874;2022-11-15T17:41:59;65.28;;;34.05;;
62941;SDS011;49042;47.318;19.874;2022-11-15T17:45:00;64.57;;;32.83;;
62941;SDS011;49042;47.318;19.874;2022-11-15T17:48:09;57.92;;;33.05;;
62941;SDS011;49042;47.318;19.874;2022-11-15T17:51:13;65.78;;;35.92;;
62941;SDS011;49042;47.318;19.874;2022-11-15T17:54:16;58.45;;;32.40;;
62941;SDS011;49042;47.318;19.874;2022-11-15T17:57:18;72.78;;;39.75;;
62941;SDS011;49042;47.318;19.874;2022-11-15T18:00:20;66.25;;;33.50;;
62941;SDS011;49042;47.318;19.874;2022-11-15T18:03:23;64.57;;;35.72;;
62941;SDS011;49042;47.318;19.874;2022-11-15T18:06:25;58.65;;;32.17;;
62941;SDS011;49042;47.318;19.874;2022-11-15T18:09:28;63.72;;;32.95;;
62941;SDS011;49042;47.318;19.874;2022-11-15T18:12:31;62.90;;;31.62;;
62941;SDS011;49042;47.318;19.874;2022-11-15T18:15:34;59.38;;;31.27;;
62941;SDS011;49042;47.318;19.874;2022-11-15T18:18:35;67.85;;;36.47;;
62941;SDS011;49042;47.318;19.874;2022-11-15T18:21:38;81.85;;;45.28;;
62941;SDS011;49042;47.318;19.874;2022-11-15T18:24:57;80.18;;;44.97;;
62941;SDS011;49042;47.318;19.874;2022-11-15T18:27:59;74.47;;;36.60;;
62941;SDS011;49042;47.318;19.874;2022-11-15T18:31:02;68.53;;;34.60;;
62941;SDS011;49042;47.318;19.874;2022-11-15T18:34:05;59.55;;;32.08;;
62941;SDS011;49042;47.318;19.874;2022-11-15T18:37:07;66.30;;;33.92;;
62941;SDS011;49042;47.318;19.874;2022-11-15T18:40:09;64.75;;;34.13;;
62941;SDS011;49042;47.318;19.874;2022-11-15T18:43:11;61.08;;;33.83;;
62941;SDS011;49042;47.318;19.874;2022-11-15T18:46:13;74.80;;;36.53;;
62941;SDS011;49042;47.318;19.874;2022-11-15T18:49:17;71.43;;;39.13;;
62941;SDS011;49042;47.318;19.874;2022-11-15T18:52:20;60.67;;;33.20;;
62941;SDS011;49042;47.318;19.874;2022-11-15T18:55:22;67.53;;;34.05;;
62941;SDS011;49042;47.318;19.874;2022-11-15T18:58:24;58.97;;;33.47;;
62941;SDS011;49042;47.318;19.874;2022-11-15T19:01:30;64.55;;;33.88;;
62941;SDS011;49042;47.318;19.874;2022-11-15T19:04:34;67.45;;;34.08;;
62941;SDS011;49042;47.318;19.874;2022-11-15T19:07:36;64.18;;;33.10;;
62941;SDS011;49042;47.318;19.874;2022-11-15T19:10:38;63.78;;;33.85;;